Time;durP1;ratioP1;P1;durP2;ratioP2;P2;SDS_P1;SDS_P2;PMS_P1;PMS_P2;Temp;Humidity;BMP_temperature;BMP_pressure;BME280_temperature;BME280_humidity;BME280_pressure;Samples;Min_cycle;Max_cycle;Signal;HPM_P1;HPM_P2
2021/01/20 00:02:25;;;;;;;7.78;6.90;;;;;;;-0.45;65.70;97989.02;1815316;79;20916;-64
2021/01/20 00:04:54;;;;;;;7.47;6.70;;;;;;;-0.43;65.50;97981.91;1815390;79;20873;-64
2021/01/20 00:07:21;;;;;;;7.90;7.10;;;;;;;-0.41;65.57;97988.02;1815339;79;20904;-63
2021/01/20 00:09:49;;;;;;;7.00;6.28;;;;;;;-0.39;65.43;97986.66;1815315;79;21429;-64
2021/01/20 00:12:17;;;;;;;7.33;6.55;;;;;;;-0.38;65.50;97978.69;1815438;79;21379;-62
2021/01/20 00:14:46;;;;;;;8.95;7.30;;;;;;;-0.34;65.51;97974.63;1815164;79;21051;-66
2021/01/20 00:17:16;;;;;;;8.03;6.90;;;;;;;-0.32;65.54;97967.52;1815349;78;20877;-64
2021/01/20 00:19:43;;;;;;;11.05;8.48;;;;;;;-0.31;65.53;97956.06;1815398;79;21485;-64
2021/01/20 00:22:14;;;;;;;9.10;8.20;;;;;;;-0.29;65.74;97960.83;1815592;79;20920;-64
2021/01/20 00:24:42;;;;;;;10.48;7.65;;;;;;;-0.27;65.70;97960.31;1815522;79;21367;-64
2021/01/20 00:27:10;;;;;;;9.45;7.87;;;;;;;-0.26;65.75;97959.41;1815463;79;21003;-64
2021/01/20 00:29:38;;;;;;;9.55;8.50;;;;;;;-0.24;65.58;97962.84;1815495;78;20971;-64
2021/01/20 00:32:05;;;;;;;11.15;8.58;;;;;;;-0.24;65.89;97968.13;1815481;79;21980;-64
2021/01/20 00:34:32;;;;;;;11.20;9.83;;;;;;;-0.23;66.09;97954.03;1815451;79;20912;-64
2021/01/20 00:37:01;;;;;;;11.22;9.40;;;;;;;-0.24;66.04;97965.48;1815482;79;21195;-63
2021/01/20 00:39:29;;;;;;;11.40;9.93;;;;;;;-0.24;65.95;97948.33;1815515;79;21402;-64
2021/01/20 00:41:57;;;;;;;10.68;8.90;;;;;;;-0.26;66.15;97968.64;1815595;79;20996;-62
2021/01/20 00:44:25;;;;;;;11.43;10.20;;;;;;;-0.27;66.47;97950.64;1815503;79;20868;-64
2021/01/20 00:46:53;;;;;;;11.73;9.83;;;;;;;-0.32;66.58;97952.54;1815285;78;20995;-63
2021/01/20 00:49:21;;;;;;;11.93;10.70;;;;;;;-0.37;66.50;97954.00;1815494;79;21826;-64
2021/01/20 00:51:48;;;;;;;10.85;9.68;;;;;;;-0.38;66.71;97947.02;1815412;78;21883;-63
2021/01/20 00:54:20;;;;;;;9.70;8.48;;;;;;;-0.47;66.87;97955.23;1815466;79;21050;-65
2021/01/20 00:56:47;;;;;;;10.55;8.73;;;;;;;-0.55;66.98;97950.66;1815455;79;20936;-65
2021/01/20 00:59:14;;;;;;;11.45;10.00;;;;;;;-0.63;67.37;97946.94;1815456;79;21003;-63
2021/01/20 01:01:43;;;;;;;11.28;9.60;;;;;;;-0.68;67.47;97933.48;1815630;79;21348;-63
2021/01/20 01:04:14;;;;;;;11.38;10.05;;;;;;;-0.70;67.68;97949.81;1814137;79;20900;-63
2021/01/20 01:06:42;;;;;;;12.07;10.38;;;;;;;-0.74;67.71;97947.74;1815512;79;21350;-63
2021/01/20 01:09:09;;;;;;;13.68;11.75;;;;;;;-0.78;68.42;97939.50;1815391;79;20999;-65
2021/01/20 01:11:37;;;;;;;13.68;10.78;;;;;;;-0.80;68.66;97938.23;1815461;79;20980;-63
2021/01/20 01:14:06;;;;;;;11.88;10.20;;;;;;;-0.86;69.13;97938.42;1815458;79;21196;-63
2021/01/20 01:16:35;;;;;;;10.88;9.63;;;;;;;-0.90;69.54;97923.59;1813637;79;20948;-63
2021/01/20 01:19:03;;;;;;;11.70;10.00;;;;;;;-0.98;69.90;97930.88;1815462;79;20923;-64
2021/01/20 01:21:31;;;;;;;12.10;9.23;;;;;;;-1.02;70.12;97928.80;1815480;79;20865;-64
2021/01/20 01:23:59;;;;;;;12.18;9.68;;;;;;;-1.05;70.54;97930.67;1815364;79;20988;-63
2021/01/20 01:26:27;;;;;;;10.75;9.35;;;;;;;-1.10;70.39;97922.44;1815500;79;21436;-64
2021/01/20 01:28:54;;;;;;;31.65;18.23;;;;;;;-1.11;70.35;97923.34;1815479;79;20912;-64
2021/01/20 01:31:27;;;;;;;15.18;11.68;;;;;;;-1.11;70.43;97923.34;1814320;79;20979;-64
2021/01/20 01:33:55;;;;;;;13.48;10.78;;;;;;;-1.10;70.50;97917.17;1815356;79;20932;-64
2021/01/20 01:36:23;;;;;;;12.45;10.70;;;;;;;-1.09;70.49;97906.16;1815369;79;21330;-64
2021/01/20 01:38:53;;;;;;;12.63;10.70;;;;;;;-1.08;70.45;97905.73;1815473;79;21387;-63
2021/01/20 01:41:22;;;;;;;11.68;10.08;;;;;;;-1.08;70.34;97903.09;1814674;79;20947;-64
2021/01/20 01:43:54;;;;;;;11.83;10.53;;;;;;;-1.05;70.27;97924.09;1813780;79;20873;-64
2021/01/20 01:46:24;;;;;;;13.05;10.88;;;;;;;-1.05;70.29;97922.77;1815098;79;20912;-64
2021/01/20 01:48:54;;;;;;;17.50;13.15;;;;;;;-1.04;70.47;97925.80;1813035;79;20912;-63
2021/01/20 01:51:24;;;;;;;14.55;11.88;;;;;;;-1.04;70.49;97909.98;1815464;79;21298;-64
2021/01/20 01:53:59;;;;;;;15.23;11.48;;;;;;;-1.05;70.47;97922.77;1780951;79;20999;-64
2021/01/20 01:56:29;;;;;;;13.48;11.53;;;;;;;-1.05;70.50;97922.77;1815286;79;20995;-63
2021/01/20 01:58:58;;;;;;;12.53;10.45;;;;;;;-1.07;70.54;97929.84;1814648;79;21022;-64
2021/01/20 02:01:26;;;;;;;16.42;13.58;;;;;;;-1.07;70.76;97917.98;1815486;79;20908;-63
2021/01/20 02:03:55;;;;;;;17.75;14.20;;;;;;;-1.11;70.94;97922.02;1815254;79;21500;-63
2021/01/20 02:06:24;;;;;;;17.85;14.00;;;;;;;-1.10;70.98;97934.77;1815073;79;20951;-64
2021/01/20 02:08:54;;;;;;;15.78;13.60;;;;;;;-1.13;71.03;97925.63;1814583;79;21350;-64
2021/01/20 02:11:52;;;;;;;17.12;15.23;;;;;;;-1.15;71.08;97924.79;1815456;79;20931;-63
2021/01/20 02:14:28;;;;;;;19.32;13.50;;;;;;;-1.17;71.24;97923.52;1815401;79;21003;-63
2021/01/20 02:17:44;;;;;;;16.75;13.55;;;;;;;-1.20;71.65;97923.64;1814071;79;21405;-63
2021/01/20 02:20:35;;;;;;;20.62;16.93;;;;;;;-1.24;71.46;97932.53;1814454;79;20892;-64
2021/01/20 02:23:07;;;;;;;20.75;15.48;;;;;;;-1.27;71.70;97926.03;1815316;79;21319;-64
2021/01/20 02:25:58;;;;;;;9.98;8.10;;;;;;;-1.28;71.74;97929.13;1772519;79;20869;-63
2021/01/20 02:29:05;;;;;;;8.40;7.30;;;;;;;-1.29;70.50;97921.27;1813293;79;20976;-62
2021/01/20 02:31:36;;;;;;;7.45;6.17;;;;;;;-1.24;69.72;97927.27;1807096;79;21214;-65
2021/01/20 02:34:08;;;;;;;6.92;6.22;;;;;;;-1.13;69.15;97933.08;1732328;79;20912;-64
2021/01/20 02:36:38;;;;;;;7.25;6.53;;;;;;;-1.02;68.84;97924.00;1800319;79;21394;-63
2021/01/20 02:39:29;;;;;;;7.97;7.17;;;;;;;-0.85;67.81;97922.13;1837022;78;27985;-64
2021/01/20 02:42:06;;;;;;;8.13;7.33;;;;;;;-0.77;67.69;97930.23;1742309;79;21023;-64
2021/01/20 02:44:43;;;;;;;8.40;7.12;;;;;;;-0.67;66.93;97932.58;1808657;79;21133;-62
2021/01/20 02:47:12;;;;;;;6.97;6.22;;;;;;;-0.55;66.50;97928.23;1805227;79;21411;-64
2021/01/20 02:49:43;;;;;;;7.35;6.62;;;;;;;-0.45;66.54;97927.48;1808531;79;20893;-62
2021/01/20 02:52:39;;;;;;;9.50;7.92;;;;;;;-0.39;66.06;97934.73;1809623;79;20897;-63
2021/01/20 02:55:10;;;;;;;7.78;6.58;;;;;;;-0.32;65.71;97938.48;1768529;79;20983;-62
2021/01/20 02:57:39;;;;;;;7.90;7.10;;;;;;;-0.25;65.55;97941.34;1795421;79;21271;-63
2021/01/20 03:00:12;;;;;;;8.80;7.90;;;;;;;-0.22;65.25;97937.25;1809584;79;21018;-63
2021/01/20 03:02:42;;;;;;;8.20;7.10;;;;;;;-0.15;65.36;97944.06;1809501;79;20986;-63
2021/01/20 03:05:10;;;;;;;6.55;5.95;;;;;;;-0.11;65.27;97936.47;1809547;79;20928;-63
2021/01/20 03:07:38;;;;;;;8.23;7.42;;;;;;;-0.09;64.87;97939.05;1809608;79;20929;-63
2021/01/20 03:10:09;;;;;;;8.70;7.37;;;;;;;-0.07;64.52;97933.25;1809560;79;22117;-64
2021/01/20 03:12:37;;;;;;;7.35;6.65;;;;;;;-0.04;64.76;97937.97;1809525;79;20976;-64
2021/01/20 03:15:12;;;;;;;7.17;6.47;;;;;;;0.01;64.31;97939.59;1809522;79;20972;-65
2021/01/20 03:17:41;;;;;;;7.85;6.92;;;;;;;0.03;64.05;97947.00;1809527;79;20925;-63
2021/01/20 03:20:10;;;;;;;6.10;5.50;;;;;;;0.05;64.04;97949.13;1778517;79;20933;-63
2021/01/20 03:22:38;;;;;;;7.03;6.33;;;;;;;0.06;64.01;97949.53;1809689;79;22323;-63
2021/01/20 03:25:08;;;;;;;6.40;5.80;;;;;;;0.09;64.05;97946.79;1809493;79;20979;-63
2021/01/20 03:27:35;;;;;;;6.72;5.80;;;;;;;0.10;64.04;97945.89;1809494;79;20999;-63
2021/01/20 03:30:06;;;;;;;9.00;7.50;;;;;;;0.10;63.73;97941.92;1809406;79;21457;-63
2021/01/20 03:32:34;;;;;;;9.38;6.67;;;;;;;0.12;63.71;97953.29;1809208;79;21349;-63
2021/01/20 03:35:02;;;;;;;7.15;6.45;;;;;;;0.12;63.75;97951.97;1809597;79;21456;-63
2021/01/20 03:37:29;;;;;;;6.85;5.83;;;;;;;0.14;63.91;97948.38;1809002;79;20885;-64
2021/01/20 03:39:57;;;;;;;8.18;7.17;;;;;;;0.17;63.71;97943.42;1798422;79;21005;-62
2021/01/20 03:42:24;;;;;;;8.88;7.00;;;;;;;0.15;63.80;97939.98;1798504;79;21004;-62
2021/01/20 03:44:52;;;;;;;7.80;6.12;;;;;;;0.14;63.49;97942.20;1798523;79;20920;-63
2021/01/20 03:47:19;;;;;;;7.45;6.60;;;;;;;0.13;63.58;97928.15;1798459;79;21190;-63
2021/01/20 03:49:48;;;;;;;6.47;5.58;;;;;;;0.16;63.33;97943.03;1798026;79;20992;-63
2021/01/20 03:52:17;;;;;;;6.67;6.08;;;;;;;0.15;63.40;97938.66;1797850;79;20988;-63
2021/01/20 03:54:44;;;;;;;8.18;7.35;;;;;;;0.14;63.49;97938.24;1797897;79;21295;-62
2021/01/20 03:57:12;;;;;;;7.87;6.45;;;;;;;0.12;63.29;97930.38;1797874;79;20897;-63
2021/01/20 03:59:40;;;;;;;7.40;6.00;;;;;;;0.09;63.38;97927.84;1797809;79;20937;-64
2021/01/20 04:02:08;;;;;;;6.25;5.65;;;;;;;0.09;63.51;97939.72;1797898;79;20969;-64
2021/01/20 04:04:36;;;;;;;6.45;5.83;;;;;;;0.10;63.29;97943.25;1797862;79;20968;-64
2021/01/20 04:07:03;;;;;;;6.17;5.58;;;;;;;0.11;63.47;97939.67;1797864;79;20917;-64
2021/01/20 04:09:33;;;;;;;7.45;5.90;;;;;;;0.10;63.55;97937.97;1797920;79;20917;-64
2021/01/20 04:12:01;;;;;;;7.60;6.78;;;;;;;0.09;63.60;97933.59;1797971;79;22406;-64
2021/01/20 04:14:28;;;;;;;7.45;6.62;;;;;;;0.07;63.94;97935.43;1797813;79;20965;-64
2021/01/20 04:16:56;;;;;;;8.18;6.92;;;;;;;0.06;63.53;97946.89;1797941;79;20989;-63
2021/01/20 04:19:23;;;;;;;7.40;6.08;;;;;;;0.05;63.76;97931.95;1797844;79;20869;-63
2021/01/20 04:21:52;;;;;;;7.17;5.85;;;;;;;0.04;63.90;97950.05;1797937;79;20917;-64
2021/01/20 04:24:20;;;;;;;9.30;6.72;;;;;;;0.03;64.00;97950.48;1797880;79;21453;-64
2021/01/20 04:26:47;;;;;;;6.40;5.03;;;;;;;0.03;63.94;97948.31;1797946;79;20980;-62
2021/01/20 04:29:19;;;;;;;6.92;5.90;;;;;;;0.01;64.07;97943.55;1797921;79;20988;-63
2021/01/20 04:31:47;;;;;;;5.67;5.17;;;;;;;-0.03;64.49;97953.37;1797861;79;20956;-63
2021/01/20 04:34:15;;;;;;;5.62;5.10;;;;;;;-0.03;64.48;97959.50;1797925;79;21008;-64
2021/01/20 04:36:42;;;;;;;6.60;5.85;;;;;;;-0.04;64.36;97954.27;1797937;79;21365;-63
2021/01/20 04:39:11;;;;;;;4.95;4.45;;;;;;;-0.06;64.45;97949.05;1797719;77;20948;-63
2021/01/20 04:41:38;;;;;;;7.30;6.28;;;;;;;-0.07;64.52;97952.59;1797793;79;20929;-63
2021/01/20 04:44:06;;;;;;;6.75;6.08;;;;;;;-0.08;64.54;97964.08;1797869;79;20965;-63
2021/01/20 04:46:35;;;;;;;6.42;5.83;;;;;;;-0.09;64.48;97962.34;1798018;79;21473;-63
2021/01/20 04:49:02;;;;;;;6.25;5.65;;;;;;;-0.07;64.53;97959.66;1797955;79;21195;-63
2021/01/20 04:51:30;;;;;;;6.35;5.75;;;;;;;-0.08;64.67;97966.72;1776020;79;20924;-63
2021/01/20 04:53:58;;;;;;;6.03;5.42;;;;;;;-0.08;64.81;97964.08;1797822;79;20964;-63
2021/01/20 04:56:25;;;;;;;5.55;4.87;;;;;;;-0.07;64.69;97959.19;1797840;79;20964;-63
2021/01/20 04:58:55;;;;;;;6.08;5.47;;;;;;;-0.07;64.77;97963.14;1797851;79;20874;-63
2021/01/20 05:01:22;;;;;;;6.05;5.45;;;;;;;-0.09;64.64;97964.13;1797853;79;21420;-63
2021/01/20 05:03:51;;;;;;;7.55;6.28;;;;;;;-0.11;64.77;97960.66;1797847;79;20940;-63
2021/01/20 05:06:18;;;;;;;7.03;6.12;;;;;;;-0.10;64.72;97963.72;1797920;79;21379;-62
2021/01/20 05:08:47;;;;;;;7.47;6.60;;;;;;;-0.11;64.79;97968.14;1797722;79;20885;-63
2021/01/20 05:11:16;;;;;;;8.23;6.70;;;;;;;-0.11;65.01;97964.19;1797910;79;20921;-63
2021/01/20 05:13:45;;;;;;;6.83;5.65;;;;;;;-0.10;65.07;97973.81;1797881;79;21330;-64
2021/01/20 05:16:25;;;;;;;6.97;6.20;;;;;;;-0.11;64.82;97963.30;1797798;79;20925;-62
2021/01/20 05:18:53;;;;;;;8.23;6.25;;;;;;;-0.10;64.79;97969.00;1797680;79;20910;-64
2021/01/20 05:21:21;;;;;;;7.62;6.42;;;;;;;-0.09;64.61;97972.91;1797858;79;20929;-63
2021/01/20 05:23:49;;;;;;;7.20;6.50;;;;;;;-0.08;64.69;97968.48;1797911;79;20972;-63
2021/01/20 05:26:18;;;;;;;7.25;6.50;;;;;;;-0.08;64.98;97974.64;1797880;79;21139;-63
2021/01/20 05:28:46;;;;;;;7.92;7.12;;;;;;;-0.08;64.62;97979.92;1797714;79;21007;-64
2021/01/20 05:31:27;;;;;;;7.62;6.83;;;;;;;-0.06;64.61;97975.45;1797773;79;20928;-63
2021/01/20 05:33:55;;;;;;;7.70;6.92;;;;;;;-0.05;64.53;97978.94;1797854;79;20964;-64
2021/01/20 05:36:22;;;;;;;6.45;5.83;;;;;;;-0.05;64.59;97990.38;1797816;79;20917;-63
2021/01/20 05:38:51;;;;;;;8.00;7.12;;;;;;;-0.05;64.67;97990.38;1802921;79;22148;-63
2021/01/20 05:41:27;;;;;;;6.95;6.25;;;;;;;-0.05;64.73;97991.70;1815466;79;21406;-64
2021/01/20 05:44:13;;;;;;;8.10;7.30;;;;;;;-0.07;64.72;97990.87;1815425;79;21038;-65
2021/01/20 05:46:43;;;;;;;7.03;6.33;;;;;;;-0.05;64.58;97998.30;1815376;79;20912;-63
2021/01/20 05:49:28;;;;;;;8.15;6.80;;;;;;;-0.05;64.79;98008.86;1815519;79;21323;-64
2021/01/20 05:51:56;;;;;;;6.55;5.72;;;;;;;-0.03;64.86;98004.86;1815452;78;21124;-63
2021/01/20 05:54:36;;;;;;;7.00;6.30;;;;;;;-0.05;64.78;98004.91;1815351;79;21497;-63
2021/01/20 05:57:21;;;;;;;6.97;6.28;;;;;;;-0.05;64.76;98011.50;1813463;79;20928;-63
2021/01/20 05:59:50;;;;;;;6.90;6.28;;;;;;;-0.04;64.67;98015.85;1815362;78;20963;-64
2021/01/20 06:02:18;;;;;;;6.15;5.55;;;;;;;-0.03;64.85;98016.73;1815556;79;20960;-64
2021/01/20 06:04:48;;;;;;;6.87;6.17;;;;;;;-0.03;64.84;98011.45;1815374;78;21174;-63
2021/01/20 06:07:15;;;;;;;6.60;5.90;;;;;;;-0.05;64.86;98016.78;1815274;79;21023;-64
2021/01/20 06:09:45;;;;;;;6.40;5.47;;;;;;;-0.04;64.61;98018.49;1815383;79;20928;-63
2021/01/20 06:12:14;;;;;;;7.80;5.80;;;;;;;-0.02;64.70;98018.44;1815357;79;20988;-64
2021/01/20 06:14:43;;;;;;;7.33;6.53;;;;;;;-0.02;64.73;98016.69;1815415;79;20920;-65
2021/01/20 06:17:18;;;;;;;6.20;5.60;;;;;;;-0.02;64.73;98024.61;1815396;79;21461;-67
2021/01/20 06:19:51;;;;;;;6.10;5.50;;;;;;;0.01;64.90;98029.38;1815345;79;28041;-65
2021/01/20 06:22:29;;;;;;;6.37;5.75;;;;;;;0.03;64.76;98028.86;1815353;79;20884;-65
2021/01/20 06:24:58;;;;;;;7.40;5.87;;;;;;;0.03;64.69;98032.34;1815068;78;20916;-66
2021/01/20 06:27:54;;;;;;;7.05;5.75;;;;;;;0.04;64.75;98030.59;1814347;79;20944;-65
2021/01/20 06:30:34;;;;;;;5.97;5.40;;;;;;;0.07;64.83;98033.13;1791087;79;21302;-64
2021/01/20 06:33:12;;;;;;;6.87;6.17;;;;;;;0.10;64.92;98035.67;1815390;79;20916;-64
2021/01/20 06:35:49;;;;;;;7.20;6.50;;;;;;;0.13;65.11;98040.86;1815266;79;20936;-62
2021/01/20 06:38:33;;;;;;;6.92;6.22;;;;;;;0.14;65.05;98034.64;1815380;78;21469;-63
2021/01/20 06:41:10;;;;;;;6.40;5.80;;;;;;;0.18;64.77;98041.56;1803690;79;20924;-63
2021/01/20 06:43:46;;;;;;;6.47;5.15;;;;;;;0.22;64.61;98037.91;1803685;79;21193;-63
2021/01/20 06:46:20;;;;;;;5.62;4.95;;;;;;;0.25;64.76;98035.14;1803561;79;20939;-63
2021/01/20 06:49:01;;;;;;;7.22;6.20;;;;;;;0.29;64.58;98042.06;1803680;79;20940;-64
2021/01/20 06:51:29;;;;;;;5.92;5.30;;;;;;;0.33;64.38;98047.66;1803706;79;20998;-64
2021/01/20 06:54:08;;;;;;;7.58;6.22;;;;;;;0.39;64.43;98047.03;1803790;79;21408;-64
2021/01/20 06:56:46;;;;;;;7.10;5.78;;;;;;;0.41;64.49;98050.48;1803642;79;21360;-62
2021/01/20 06:59:30;;;;;;;7.42;6.22;;;;;;;0.46;64.12;98040.64;1803630;79;21015;-65
2021/01/20 07:02:09;;;;;;;7.17;6.47;;;;;;;0.50;64.08;98052.81;1803272;79;21006;-63
2021/01/20 07:04:53;;;;;;;7.33;6.00;;;;;;;0.56;64.16;98055.25;1803605;79;20912;-63
2021/01/20 07:07:54;;;;;;;4.80;4.30;;;;;;;0.59;63.97;98044.57;1803640;79;20873;-64
2021/01/20 07:10:29;;;;;;;5.70;5.10;;;;;;;0.65;63.79;98054.08;1803632;79;21266;-63
2021/01/20 07:13:17;;;;;;;5.62;5.05;;;;;;;0.68;63.58;98046.90;1803629;79;20979;-62
2021/01/20 07:15:49;;;;;;;5.17;4.60;;;;;;;0.74;63.79;98054.20;1803716;79;20983;-63
2021/01/20 07:18:16;;;;;;;6.03;5.05;;;;;;;0.80;63.88;98053.98;1803629;79;20995;-63
2021/01/20 07:20:55;;;;;;;4.72;4.28;;;;;;;0.85;63.88;98063.93;1803677;79;20899;-65
2021/01/20 07:23:34;;;;;;;4.22;3.77;;;;;;;0.90;63.97;98057.58;1803689;79;21150;-65
2021/01/20 07:26:06;;;;;;;5.03;4.53;;;;;;;0.98;63.74;98070.52;1803825;79;21002;-66
2021/01/20 07:28:35;;;;;;;4.65;4.22;;;;;;;1.03;63.38;98068.56;1803794;79;20943;-62
2021/01/20 07:31:10;;;;;;;4.97;4.58;;;;;;;1.08;63.00;98060.47;1803895;79;21334;-63
2021/01/20 07:33:42;;;;;;;5.28;4.78;;;;;;;1.16;63.08;98061.52;1803809;79;20964;-63
2021/01/20 07:36:17;;;;;;;5.22;4.72;;;;;;;1.22;62.71;98059.50;1799554;79;21374;-62
2021/01/20 07:38:45;;;;;;;6.50;5.80;;;;;;;1.28;62.63;98062.39;1803771;79;20939;-62
2021/01/20 07:41:17;;;;;;;6.15;5.55;;;;;;;1.34;62.55;98062.16;1815012;79;20928;-62
2021/01/20 07:43:46;;;;;;;4.97;4.47;;;;;;;1.40;62.36;98063.25;1815615;79;21011;-62
2021/01/20 07:46:17;;;;;;;5.22;4.75;;;;;;;1.46;62.57;98061.29;1815623;79;20921;-63
2021/01/20 07:48:45;;;;;;;6.15;5.55;;;;;;;1.51;61.93;98060.64;1815517;79;21356;-64
2021/01/20 07:51:22;;;;;;;4.70;4.30;;;;;;;1.58;62.01;98070.09;1815545;79;20920;-63
2021/01/20 07:54:04;;;;;;;4.20;3.80;;;;;;;1.62;61.71;98067.27;1815467;78;20960;-63
2021/01/20 07:56:34;;;;;;;4.85;4.28;;;;;;;1.68;61.96;98064.83;1815417;79;20928;-63
2021/01/20 07:59:18;;;;;;;4.28;3.70;;;;;;;1.74;62.14;98073.01;1815496;78;20909;-63
2021/01/20 08:01:47;;;;;;;5.12;3.95;;;;;;;1.78;61.61;98074.59;1815518;79;21460;-63
2021/01/20 08:04:22;;;;;;;4.45;4.05;;;;;;;1.85;61.90;98087.16;1815409;78;21038;-63
2021/01/20 08:06:50;;;;;;;4.25;3.85;;;;;;;1.89;61.91;98088.74;1815600;79;21516;-63
2021/01/20 08:09:18;;;;;;;4.78;4.35;;;;;;;1.91;61.83;98088.24;1815423;79;21001;-62
2021/01/20 08:11:46;;;;;;;4.70;4.08;;;;;;;1.95;61.69;98093.80;1815507;79;20987;-64
2021/01/20 08:14:13;;;;;;;4.50;4.10;;;;;;;1.98;61.57;98101.16;1815498;79;21234;-62
2021/01/20 08:16:42;;;;;;;4.17;3.67;;;;;;;2.02;61.60;98103.25;1815516;79;20928;-63
2021/01/20 08:19:11;;;;;;;4.42;3.95;;;;;;;2.04;61.54;98105.36;1814167;79;20920;-63
2021/01/20 08:21:38;;;;;;;4.60;3.85;;;;;;;2.05;61.67;98101.80;1815492;79;20964;-63
2021/01/20 08:24:08;;;;;;;5.03;4.53;;;;;;;2.10;61.71;98098.97;1815482;79;21038;-63
2021/01/20 08:26:35;;;;;;;4.15;3.75;;;;;;;2.12;61.58;98098.44;1787009;79;21194;-64
2021/01/20 08:29:09;;;;;;;5.37;4.45;;;;;;;2.16;61.60;98104.88;1815374;79;20927;-62
2021/01/20 08:31:40;;;;;;;7.03;5.80;;;;;;;2.19;61.35;98098.58;1815589;79;20979;-64
2021/01/20 08:34:20;;;;;;;5.50;4.80;;;;;;;2.22;61.25;98089.65;1815549;79;20972;-62
2021/01/20 08:36:55;;;;;;;6.17;4.72;;;;;;;2.26;61.41;98093.91;1815499;79;20960;-63
2021/01/20 08:39:23;;;;;;;5.33;4.80;;;;;;;2.31;61.58;98099.88;1814685;79;22248;-62
2021/01/20 08:42:27;;;;;;;4.85;4.08;;;;;;;2.34;61.44;98105.06;1797856;79;20910;-62
2021/01/20 08:45:21;;;;;;;4.83;4.20;;;;;;;2.38;61.33;98100.05;1798148;79;21343;-62
2021/01/20 08:47:56;;;;;;;5.20;4.70;;;;;;;2.42;61.28;98104.75;1797775;79;22031;-63
2021/01/20 08:50:37;;;;;;;6.55;5.60;;;;;;;2.47;61.33;98103.61;1797907;79;20933;-62
2021/01/20 08:53:10;;;;;;;5.80;4.85;;;;;;;2.55;61.58;98111.25;1797875;79;22344;-62
2021/01/20 08:55:51;;;;;;;14.87;10.78;;;;;;;2.63;61.12;98110.50;1797835;79;20995;-63
2021/01/20 08:58:32;;;;;;;14.58;11.40;;;;;;;2.70;61.50;98114.59;1797819;79;21438;-62
2021/01/20 09:01:09;;;;;;;16.48;11.93;;;;;;;2.77;61.49;98119.17;1797830;79;20976;-63
2021/01/20 09:03:38;;;;;;;11.30;9.85;;;;;;;2.83;61.58;98114.94;1797879;79;20921;-62
2021/01/20 09:06:15;;;;;;;9.88;8.88;;;;;;;2.92;61.62;98119.44;1797827;79;21353;-62
2021/01/20 09:08:43;;;;;;;10.32;8.78;;;;;;;2.99;61.41;98120.91;1797766;79;20941;-62
2021/01/20 09:11:10;;;;;;;8.08;7.28;;;;;;;3.06;60.91;98112.63;1797879;79;20937;-62
2021/01/20 09:13:38;;;;;;;8.65;7.90;;;;;;;3.12;60.78;98108.83;1797759;79;20988;-62
2021/01/20 09:16:07;;;;;;;7.33;6.40;;;;;;;3.18;60.50;98112.53;1797900;79;20957;-64
2021/01/20 09:18:36;;;;;;;6.58;5.62;;;;;;;3.23;60.08;98109.23;1797728;79;21355;-63
2021/01/20 09:21:04;;;;;;;7.60;6.90;;;;;;;3.27;59.58;98107.78;1797829;79;20890;-62
2021/01/20 09:23:32;;;;;;;5.67;5.10;;;;;;;3.30;59.71;98107.64;1797849;79;20874;-62
2021/01/20 09:26:00;;;;;;;4.90;4.28;;;;;;;3.33;59.56;98108.84;1797785;79;20925;-64
2021/01/20 09:28:27;;;;;;;9.50;8.53;;;;;;;3.37;59.70;98110.41;1797754;79;20960;-63
2021/01/20 09:30:56;;;;;;;6.03;5.40;;;;;;;3.41;59.81;98106.69;1797878;79;21328;-63
2021/01/20 09:33:24;;;;;;;5.60;5.00;;;;;;;3.46;59.89;98102.50;1797758;79;20957;-63
2021/01/20 09:35:51;;;;;;;4.60;4.12;;;;;;;3.53;59.04;98099.95;1797839;79;20929;-63
2021/01/20 09:38:21;;;;;;;4.47;3.50;;;;;;;3.59;58.97;98110.30;1797852;79;21013;-62
2021/01/20 09:40:48;;;;;;;4.42;4.00;;;;;;;3.62;58.79;98111.00;1806341;79;20983;-62
2021/01/20 09:43:16;;;;;;;4.67;4.20;;;;;;;3.66;58.55;98108.20;1815455;79;23559;-64
2021/01/20 09:45:45;;;;;;;5.08;4.53;;;;;;;3.66;58.51;98100.24;1815448;79;21342;-62
2021/01/20 09:48:12;;;;;;;4.97;4.58;;;;;;;3.67;58.66;98096.66;1815342;79;20936;-61
2021/01/20 09:50:43;;;;;;;4.37;3.92;;;;;;;3.67;58.56;98099.32;1815370;79;20995;-62
2021/01/20 09:53:09;;;;;;;4.47;4.08;;;;;;;3.66;58.64;98090.95;1815348;79;21016;-62
2021/01/20 09:55:36;;;;;;;5.12;3.90;;;;;;;3.64;58.95;98096.80;1815428;79;21350;-62
2021/01/20 09:58:04;;;;;;;3.98;3.67;;;;;;;3.65;59.26;98097.21;1815312;79;20943;-62
2021/01/20 10:00:34;;;;;;;6.05;5.45;;;;;;;3.63;59.43;98101.27;1815350;79;20920;-63
2021/01/20 10:03:04;;;;;;;4.35;3.95;;;;;;;3.59;59.21;98098.34;1815372;79;20979;-64
2021/01/20 10:05:31;;;;;;;4.60;4.22;;;;;;;3.55;59.69;98097.63;1815399;79;20900;-64
2021/01/20 10:07:59;;;;;;;4.58;4.17;;;;;;;3.52;59.99;98099.09;1815438;78;21198;-63
2021/01/20 10:10:27;;;;;;;4.97;4.47;;;;;;;3.47;59.93;98099.78;1815352;79;20985;-63
2021/01/20 10:12:55;;;;;;;4.67;4.28;;;;;;;3.41;59.96;98097.40;1815437;79;21038;-62
2021/01/20 10:15:23;;;;;;;6.60;4.97;;;;;;;3.38;60.24;98096.20;1815474;79;20924;-64
2021/01/20 10:17:52;;;;;;;4.55;4.12;;;;;;;3.34;60.30;98092.84;1815331;79;20913;-63
2021/01/20 10:20:20;;;;;;;4.30;3.90;;;;;;;3.29;60.52;98088.66;1815400;79;22265;-66
2021/01/20 10:22:48;;;;;;;3.02;2.60;;;;;;;3.28;60.34;98089.58;1815351;79;20991;-62
2021/01/20 10:25:15;;;;;;;3.85;3.50;;;;;;;3.27;60.62;98085.22;1815326;79;21496;-65
2021/01/20 10:27:43;;;;;;;4.50;4.10;;;;;;;3.30;60.61;98082.42;1815351;79;20912;-65
2021/01/20 10:30:14;;;;;;;4.85;4.35;;;;;;;3.30;60.84;98087.73;1815386;78;20924;-63
2021/01/20 10:32:43;;;;;;;4.75;4.12;;;;;;;3.34;60.45;98077.35;1815400;79;21314;-63
2021/01/20 10:35:12;;;;;;;4.53;3.98;;;;;;;3.38;60.55;98085.59;1815322;79;20924;-66
2021/01/20 10:37:40;;;;;;;4.37;3.72;;;;;;;3.42;60.58;98084.50;1815305;79;20928;-64
2021/01/20 10:40:09;;;;;;;4.78;4.30;;;;;;;3.45;60.30;98089.67;1815207;79;20987;-65
2021/01/20 10:42:37;;;;;;;4.40;4.00;;;;;;;3.46;60.42;98083.92;1815366;79;20991;-62
2021/01/20 10:45:07;;;;;;;4.08;3.37;;;;;;;3.47;60.26;98085.62;1815326;79;21342;-66
2021/01/20 10:47:35;;;;;;;3.95;3.65;;;;;;;3.45;60.39;98084.36;1815384;78;20904;-64
2021/01/20 10:50:04;;;;;;;3.85;3.45;;;;;;;3.45;60.40;98079.05;1815340;79;20912;-65
2021/01/20 10:52:32;;;;;;;4.03;3.70;;;;;;;3.48;60.34;98078.06;1815418;78;20928;-64
2021/01/20 10:55:00;;;;;;;4.58;4.17;;;;;;;3.51;60.56;98074.79;1815391;79;20988;-66
2021/01/20 10:57:27;;;;;;;4.53;4.08;;;;;;;3.54;60.55;98072.00;1815457;79;22098;-68
2021/01/20 10:59:56;;;;;;;4.33;3.92;;;;;;;3.55;60.67;98080.37;1815384;79;20948;-64
2021/01/20 11:02:24;;;;;;;4.33;3.92;;;;;;;3.58;60.92;98076.25;1815608;79;20912;-62
2021/01/20 11:04:51;;;;;;;5.05;4.53;;;;;;;3.59;61.00;98083.26;1815510;79;20912;-62
2021/01/20 11:07:19;;;;;;;4.67;4.12;;;;;;;3.54;61.22;98077.30;1815592;79;20968;-65
2021/01/20 11:09:51;;;;;;;5.45;4.33;;;;;;;3.55;61.37;98083.02;1815454;79;21194;-64
2021/01/20 11:12:18;;;;;;;4.83;3.85;;;;;;;3.53;61.33;98078.27;1815621;79;21413;-64
2021/01/20 11:14:48;;;;;;;4.33;3.92;;;;;;;3.52;61.61;98071.21;1815540;78;20980;-64
2021/01/20 11:17:15;;;;;;;5.15;4.62;;;;;;;3.51;61.85;98076.12;1815499;79;21047;-64
2021/01/20 11:19:44;;;;;;;4.00;3.47;;;;;;;3.50;61.91;98067.78;1815536;79;21472;-65
2021/01/20 11:22:13;;;;;;;4.67;4.28;;;;;;;3.49;61.79;98063.86;1815515;79;21183;-64
2021/01/20 11:24:41;;;;;;;4.15;3.72;;;;;;;3.47;62.04;98070.57;1815468;79;20940;-64
2021/01/20 11:27:10;;;;;;;4.45;4.05;;;;;;;3.48;62.11;98061.66;1815193;79;20939;-63
2021/01/20 11:29:38;;;;;;;4.08;3.67;;;;;;;3.49;62.00;98059.41;1815426;79;20964;-62
2021/01/20 11:32:06;;;;;;;5.03;4.53;;;;;;;3.50;61.84;98056.27;1815620;79;21027;-66
2021/01/20 11:34:33;;;;;;;4.80;4.30;;;;;;;3.49;61.83;98054.09;1815513;79;21378;-64
2021/01/20 11:37:01;;;;;;;4.78;4.28;;;;;;;3.50;61.76;98055.83;1815461;79;20896;-65
2021/01/20 11:39:29;;;;;;;3.77;3.40;;;;;;;3.50;61.84;98057.59;1815480;79;21441;-65
2021/01/20 11:41:56;;;;;;;3.75;3.45;;;;;;;3.48;61.86;98052.36;1815384;79;21016;-63
2021/01/20 11:44:24;;;;;;;4.30;3.90;;;;;;;3.44;62.05;98044.16;1815565;78;20912;-62
2021/01/20 11:46:53;;;;;;;4.30;3.90;;;;;;;3.46;61.73;98044.94;1815527;78;21440;-65
2021/01/20 11:49:21;;;;;;;4.30;3.90;;;;;;;3.41;61.85;98031.88;1815506;78;22013;-63
2021/01/20 11:51:48;;;;;;;4.50;4.10;;;;;;;3.43;61.88;98035.78;1815552;79;21003;-65
2021/01/20 11:54:16;;;;;;;4.72;3.98;;;;;;;3.39;61.82;98038.17;1815495;79;21485;-65
2021/01/20 11:56:43;;;;;;;4.97;4.58;;;;;;;3.40;61.77;98031.47;1815522;78;20869;-62